createdAt,value
2023-05-16T00:02:24.106Z,99587.00
2023-05-16T00:07:28.161Z,99589.40
2023-05-16T00:12:34.714Z,99593.71
2023-05-16T00:17:39.600Z,99594.72
2023-05-16T00:22:44.420Z,99598.73
2023-05-16T00:27:48.123Z,99601.59
2023-05-16T00:32:54.902Z,99601.38
2023-05-16T00:38:00.390Z,99605.68
2023-05-16T00:43:04.478Z,99607.52
2023-05-16T00:48:10.547Z,99617.27
2023-05-16T00:53:14.408Z,99614.22
2023-05-16T00:58:18.933Z,99615.08
2023-05-16T01:03:23.029Z,99612.83
2023-05-16T01:08:27.534Z,99615.02
2023-05-16T01:13:58.080Z,99613.95
2023-05-16T01:19:21.728Z,99614.71
2023-05-16T01:24:45.140Z,99615.87
2023-05-16T01:29:48.843Z,99628.51
2023-05-16T01:34:52.918Z,99635.89
2023-05-16T01:40:08.175Z,99633.52
2023-05-16T01:45:25.418Z,99635.10
2023-05-16T01:50:30.261Z,99645.00
2023-05-16T01:55:45.679Z,99649.91
2023-05-16T02:00:49.531Z,99645.86
2023-05-16T02:05:54.124Z,99656.70
2023-05-16T02:10:57.825Z,99666.55
2023-05-16T02:16:01.655Z,99670.40
2023-05-16T02:21:05.390Z,99670.91
2023-05-16T02:26:09.445Z,99672.73
2023-05-16T02:31:14.420Z,99678.70
2023-05-16T02:36:18.276Z,99669.14
2023-05-16T02:41:22.654Z,99666.36
2023-05-16T02:46:29.256Z,99662.27
2023-05-16T02:51:33.245Z,99669.76
2023-05-16T02:56:37.734Z,99682.71
2023-05-16T03:01:41.661Z,99679.66
2023-05-16T03:06:45.471Z,99673.75
2023-05-16T03:11:49.329Z,99673.66
2023-05-16T03:16:56.535Z,99680.36
2023-05-16T03:22:00.293Z,99686.92
2023-05-16T03:27:06.082Z,99687.71
2023-05-16T03:32:11.974Z,99687.52
2023-05-16T03:37:16.774Z,99690.11
2023-05-16T03:42:20.554Z,99694.15
2023-05-16T03:47:25.756Z,99704.36
2023-05-16T03:52:29.774Z,99703.14
2023-05-16T03:57:34.332Z,99705.67
2023-05-16T04:02:41.287Z,99711.73
2023-05-16T04:07:45.144Z,99724.91
2023-05-16T04:12:49.314Z,99743.17
2023-05-16T04:17:53.036Z,99759.21
2023-05-16T04:22:56.825Z,99763.91
2023-05-16T04:28:00.557Z,99767.67
2023-05-16T04:33:04.518Z,99777.51
2023-05-16T04:38:09.347Z,99787.36
2023-05-16T04:43:14.086Z,99797.05
2023-05-16T04:48:17.953Z,99789.85
2023-05-16T04:53:21.859Z,99762.46
2023-05-16T04:58:25.587Z,99752.23
2023-05-16T05:03:29.487Z,99766.17
2023-05-16T05:08:33.168Z,99784.64
2023-05-16T05:13:36.939Z,99797.56
2023-05-16T05:18:41.261Z,99808.20
2023-05-16T05:23:45.060Z,99830.13
2023-05-16T05:29:00.989Z,99837.23
2023-05-16T05:34:09.307Z,99841.02
2023-05-16T05:39:13.030Z,99849.92
2023-05-16T05:44:17.225Z,99860.59
2023-05-16T05:49:21.097Z,99866.55
2023-05-16T05:54:25.225Z,99871.65
2023-05-16T05:59:29.014Z,99865.67
2023-05-16T06:04:33.313Z,99854.80
2023-05-16T06:09:37.109Z,99853.20
2023-05-16T06:14:41.026Z,99854.09
2023-05-16T06:19:45.644Z,99857.77
2023-05-16T06:24:49.250Z,99858.11
2023-05-16T06:29:52.975Z,99856.73
2023-05-16T06:34:56.602Z,99870.50
2023-05-16T06:40:00.381Z,99876.14
2023-05-16T06:45:04.809Z,99883.07
2023-05-16T06:50:08.982Z,99890.12
2023-05-16T06:55:16.814Z,99889.85
2023-05-16T07:00:21.066Z,99897.01
2023-05-16T07:05:24.843Z,99903.73
2023-05-16T07:10:28.798Z,99899.36
2023-05-16T07:15:32.722Z,99897.55
2023-05-16T07:20:36.846Z,99895.77
2023-05-16T07:25:41.663Z,99893.17
2023-05-16T07:30:45.726Z,99886.11
2023-05-16T07:36:00.926Z,99880.23
2023-05-16T07:41:12.180Z,99881.70
2023-05-16T07:46:16.108Z,99884.40
2023-05-16T07:51:20.250Z,99885.90
2023-05-16T07:56:24.427Z,99894.66
2023-05-16T08:01:28.396Z,99901.41
2023-05-16T08:06:32.369Z,99904.14
2023-05-16T08:11:36.680Z,99908.21
2023-05-16T08:16:40.572Z,99911.74
2023-05-16T08:21:44.406Z,99919.09
2023-05-16T08:26:48.148Z,99916.77
2023-05-16T08:31:52.663Z,99922.06
2023-05-16T08:36:56.611Z,99937.02
2023-05-16T08:42:00.971Z,99950.78
2023-05-16T08:47:16.482Z,99949.63
2023-05-16T08:52:28.342Z,99955.14
2023-05-16T08:57:34.227Z,99951.55
2023-05-16T09:02:42.385Z,99961.70
2023-05-16T09:07:47.228Z,99958.64
2023-05-16T09:12:52.559Z,99961.11
2023-05-16T09:17:56.363Z,99969.71
2023-05-16T09:23:00.982Z,99980.13
2023-05-16T09:28:05.073Z,99981.91
2023-05-16T09:33:09.047Z,99976.77
2023-05-16T09:38:17.367Z,99983.49
2023-05-16T09:43:26.025Z,99998.17
2023-05-16T09:48:30.027Z,100016.46
2023-05-16T09:53:34.742Z,100023.81
2023-05-16T09:58:41.462Z,100023.75
2023-05-16T10:03:45.598Z,100026.16
2023-05-16T10:08:50.498Z,100035.15
2023-05-16T10:13:55.517Z,100032.79
2023-05-16T10:19:01.950Z,100025.06
2023-05-16T10:24:08.097Z,100026.98
2023-05-16T10:29:12.381Z,100013.20
2023-05-16T10:34:18.715Z,100014.27
2023-05-16T10:39:22.779Z,100022.73
2023-05-16T10:44:26.667Z,100020.51
2023-05-16T10:49:32.132Z,100024.41
2023-05-16T10:54:52.515Z,100021.20
2023-05-16T11:00:02.205Z,100022.21
2023-05-16T11:05:07.475Z,100025.42
2023-05-16T11:10:17.652Z,100017.97
2023-05-16T11:15:28.939Z,100019.61
2023-05-16T11:20:35.912Z,100013.14
2023-05-16T11:25:41.603Z,100003.47
2023-05-16T11:30:51.383Z,100004.63
2023-05-16T11:41:18.254Z,100017.14
2023-05-16T11:46:22.890Z,100011.07
2023-05-16T11:51:27.115Z,100012.86
2023-05-16T11:56:32.571Z,100015.09
2023-05-16T12:01:38.368Z,100021.18
2023-05-16T12:06:48.770Z,100020.66
2023-05-16T12:11:53.648Z,100030.16
2023-05-16T12:16:57.689Z,100026.66
2023-05-16T12:22:02.250Z,100026.25
2023-05-16T12:27:07.103Z,100025.31
2023-05-16T12:32:11.191Z,100028.69
2023-05-16T12:37:15.139Z,100034.80
2023-05-16T12:42:20.364Z,100033.26
2023-05-16T12:47:24.226Z,100041.29
2023-05-16T12:52:29.796Z,100050.54
2023-05-16T12:57:35.500Z,100051.59
2023-05-16T13:02:41.164Z,100048.92
2023-05-16T13:07:45.431Z,100049.30
2023-05-16T13:12:49.320Z,100053.88
2023-05-16T13:17:53.396Z,100058.23
2023-05-16T13:22:57.233Z,100057.13
2023-05-16T13:28:02.361Z,100046.36
2023-05-16T13:33:06.241Z,100059.40
2023-05-16T13:38:12.426Z,100058.58
2023-05-16T13:43:16.701Z,100056.91
2023-05-16T13:48:21.737Z,100069.79
2023-05-16T13:53:25.694Z,100074.77
2023-05-16T13:58:29.577Z,100084.53
2023-05-16T14:03:34.316Z,100080.11
2023-05-16T14:08:38.141Z,100079.42
2023-05-16T14:13:42.076Z,100080.70
2023-05-16T14:18:46.121Z,100083.77
2023-05-16T14:23:51.884Z,100083.66
2023-05-16T14:28:57.341Z,100074.89
2023-05-16T14:34:01.242Z,100067.16
2023-05-16T14:39:05.115Z,100070.77
2023-05-16T14:44:09.763Z,100073.95
2023-05-16T14:49:19.149Z,100074.37
2023-05-16T14:54:23.631Z,100073.64
2023-05-16T14:59:28.495Z,100072.56
2023-05-16T15:04:33.041Z,100070.72
2023-05-16T15:09:37.054Z,100068.02
2023-05-16T15:14:40.715Z,100064.54
2023-05-16T15:19:44.456Z,100079.92
2023-05-16T15:24:55.604Z,100088.88
2023-05-16T15:30:02.787Z,100099.45
2023-05-16T15:35:07.026Z,100097.36
2023-05-16T15:40:11.526Z,100099.23
2023-05-16T15:45:15.141Z,100099.04
2023-05-16T15:50:18.875Z,100108.96
2023-05-16T15:55:22.658Z,100119.14
2023-05-16T16:00:26.803Z,100114.85
2023-05-16T16:05:30.650Z,100119.46
2023-05-16T16:10:35.058Z,100109.30
2023-05-16T16:15:39.809Z,100118.46
2023-05-16T16:20:43.598Z,100119.84
2023-05-16T16:25:47.332Z,100120.64
2023-05-16T16:30:51.323Z,100129.79
2023-05-16T16:35:55.938Z,100121.29
2023-05-16T16:40:59.690Z,100120.29
2023-05-16T16:46:03.431Z,100124.88
2023-05-16T16:51:07.567Z,100139.90
2023-05-16T16:56:11.321Z,100140.03
2023-05-16T17:01:15.172Z,100141.81
2023-05-16T17:06:19.548Z,100150.57
2023-05-16T17:11:23.948Z,100156.31
2023-05-16T17:16:31.698Z,100159.27
2023-05-16T17:21:37.577Z,100165.82
2023-05-16T17:26:41.411Z,100170.06
2023-05-16T17:31:51.286Z,100171.08
2023-05-16T17:36:54.983Z,100171.73
2023-05-16T17:42:00.091Z,100178.84
2023-05-16T17:47:07.376Z,100181.08
2023-05-16T17:52:11.337Z,100187.96
2023-05-16T17:57:15.959Z,100193.02
2023-05-16T18:02:20.321Z,100196.82
2023-05-16T18:07:28.200Z,100201.09
2023-05-16T18:12:32.066Z,100200.46
2023-05-16T18:17:36.035Z,100204.59
2023-05-16T18:22:40.015Z,100197.72
2023-05-16T18:27:46.454Z,100195.84
2023-05-16T18:32:51.699Z,100193.01
2023-05-16T18:37:56.216Z,100208.50
2023-05-16T18:43:00.815Z,100213.14
2023-05-16T18:48:05.463Z,100219.91
2023-05-16T18:53:10.478Z,100227.91
2023-05-16T18:58:16.235Z,100230.41
2023-05-16T19:03:21.109Z,100239.28
2023-05-16T19:08:31.302Z,100245.61
2023-05-16T19:13:42.377Z,100247.85
2023-05-16T19:18:47.657Z,100249.95
2023-05-16T19:23:52.578Z,100251.91
2023-05-16T19:29:01.057Z,100258.45
2023-05-16T19:34:06.883Z,100259.44
2023-05-16T19:39:10.875Z,100261.06
2023-05-16T19:44:14.930Z,100269.71
2023-05-16T19:49:21.311Z,100272.64
2023-05-16T19:54:25.468Z,100273.86
2023-05-16T19:59:29.915Z,100279.02
2023-05-16T20:04:33.781Z,100275.56
2023-05-16T20:09:37.921Z,100278.35
2023-05-16T20:14:42.485Z,100279.50
2023-05-16T20:19:47.854Z,100279.31
2023-05-16T20:24:52.121Z,100295.85
2023-05-16T20:29:57.491Z,100292.06
2023-05-16T20:35:04.770Z,100276.38
2023-05-16T20:40:10.718Z,100291.75
2023-05-16T20:45:15.940Z,100299.86
2023-05-16T20:50:20.685Z,100294.01
2023-05-16T20:55:26.363Z,100287.04
2023-05-16T21:00:30.444Z,100292.69
2023-05-16T21:05:38.208Z,100304.25
2023-05-16T21:10:42.388Z,100322.08
2023-05-16T21:15:47.711Z,100325.11
2023-05-16T21:20:51.490Z,100321.98
2023-05-16T21:25:55.769Z,100318.86
2023-05-16T21:31:00.055Z,100311.68
2023-05-16T21:36:04.324Z,100320.55
2023-05-16T21:41:08.211Z,100315.12
2023-05-16T21:46:12.221Z,100307.70
2023-05-16T21:51:19.775Z,100317.30
2023-05-16T21:56:32.437Z,100317.62
2023-05-16T22:01:36.562Z,100317.57
2023-05-16T22:06:40.562Z,100319.82
2023-05-16T22:11:44.394Z,100318.98
2023-05-16T22:16:48.072Z,100323.23
2023-05-16T22:21:51.846Z,100328.13
2023-05-16T22:26:55.912Z,100321.92
2023-05-16T22:31:59.699Z,100322.27
2023-05-16T22:37:04.514Z,100325.02
2023-05-16T22:42:10.786Z,100317.70
2023-05-16T22:47:15.838Z,100321.00
2023-05-16T22:52:19.768Z,100319.84
2023-05-16T22:57:24.644Z,100327.94
2023-05-16T23:02:30.946Z,100324.49
2023-05-16T23:07:34.989Z,100320.86
2023-05-16T23:12:40.443Z,100320.98
2023-05-16T23:17:44.908Z,100330.09
2023-05-16T23:22:48.976Z,100334.28
2023-05-16T23:27:54.011Z,100329.79
2023-05-16T23:32:58.187Z,100323.96
2023-05-16T23:38:03.640Z,100323.92
2023-05-16T23:43:09.911Z,100326.33
2023-05-16T23:48:13.910Z,100331.95
2023-05-16T23:53:20.222Z,100335.00
2023-05-16T23:58:24.118Z,100333.33
